Time;durP1;ratioP1;P1;durP2;ratioP2;P2;SDS_P1;SDS_P2;PMS_P1;PMS_P2;Temp;Humidity;BMP_temperature;BMP_pressure;BME280_temperature;BME280_humidity;BME280_pressure;Samples;Min_cycle;Max_cycle;Signal;HPM_P1;HPM_P2
2023/12/05 00:01:54;;;;;;;13.80;7.43;;;0.10;99.90;;;;;;4929151;29;20052;-84
2023/12/05 00:04:20;;;;;;;13.18;7.20;;;-0.40;99.90;;;;;;4912939;29;20052;-84
2023/12/05 00:06:47;;;;;;;14.52;8.30;;;0.60;99.90;;;;;;4928930;29;20091;-84
2023/12/05 00:09:14;;;;;;;15.70;7.63;;;0.00;99.90;;;;;;4918262;29;20040;-84
2023/12/05 00:11:41;;;;;;;15.48;7.90;;;0.30;99.90;;;;;;4930948;29;20044;-83
2023/12/05 00:14:08;;;;;;;15.90;7.95;;;0.00;99.90;;;;;;4922374;29;20040;-84
2023/12/05 00:16:34;;;;;;;15.05;8.18;;;0.00;99.90;;;;;;4935484;29;20041;-83
2023/12/05 00:19:01;;;;;;;15.55;8.43;;;0.00;99.90;;;;;;4927226;29;20047;-84
2023/12/05 00:21:27;;;;;;;15.57;8.10;;;0.00;99.90;;;;;;4912021;29;20132;-84
2023/12/05 00:23:54;;;;;;;16.35;9.18;;;0.00;99.90;;;;;;4930235;29;20173;-84
2023/12/05 00:26:21;;;;;;;17.45;8.02;;;0.00;99.90;;;;;;4948839;29;20171;-83
2023/12/05 00:28:47;;;;;;;17.35;8.35;;;-0.10;99.90;;;;;;4949534;29;20042;-83
2023/12/05 00:31:14;;;;;;;20.02;9.38;;;0.00;99.90;;;;;;4911297;29;20063;-83
2023/12/05 00:33:41;;;;;;;17.73;9.57;;;0.00;99.90;;;;;;4929539;29;20395;-84
2023/12/05 00:36:08;;;;;;;17.70;9.18;;;0.00;99.90;;;;;;4908043;29;20116;-84
2023/12/05 00:38:34;;;;;;;17.23;8.73;;;0.00;99.90;;;;;;4927608;29;20040;-84
2023/12/05 00:41:01;;;;;;;18.73;9.13;;;0.00;99.90;;;;;;4942062;29;20043;-83
2023/12/05 00:43:28;;;;;;;16.83;8.30;;;-0.10;99.90;;;;;;4928816;29;20043;-83
2023/12/05 00:45:55;;;;;;;16.02;8.80;;;-0.10;99.90;;;;;;4927390;29;20092;-83
2023/12/05 00:48:22;;;;;;;17.58;9.27;;;-0.10;99.90;;;;;;4926469;29;20509;-83
2023/12/05 00:50:49;;;;;;;16.08;8.65;;;-0.10;99.90;;;;;;4906422;29;20045;-83
2023/12/05 00:53:16;;;;;;;17.80;9.25;;;-0.10;99.90;;;;;;4916322;29;20045;-84
2023/12/05 00:55:43;;;;;;;18.60;9.43;;;0.60;99.90;;;;;;4922917;29;20133;-84
2023/12/05 00:58:09;;;;;;;19.15;9.25;;;-0.10;99.90;;;;;;4914537;29;20041;-84
2023/12/05 01:00:36;;;;;;;19.27;9.35;;;-0.10;99.90;;;;;;4936762;29;20629;-83
2023/12/05 01:03:03;;;;;;;17.92;9.20;;;-0.10;99.90;;;;;;4915947;29;20124;-84
2023/12/05 01:05:29;;;;;;;18.33;9.45;;;-0.10;99.90;;;;;;4923220;29;20049;-84
2023/12/05 01:07:56;;;;;;;17.92;9.32;;;0.70;99.90;;;;;;4929232;29;20123;-84
2023/12/05 01:10:22;;;;;;;18.52;8.70;;;0.90;99.90;;;;;;4914297;29;20474;-84
2023/12/05 01:12:49;;;;;;;20.98;10.13;;;-0.10;99.90;;;;;;4942832;29;20081;-83
2023/12/05 01:15:16;;;;;;;18.10;9.00;;;-0.10;99.90;;;;;;4930002;29;20565;-83
2023/12/05 01:17:43;;;;;;;21.35;10.10;;;-0.10;99.90;;;;;;4904844;29;20048;-83
2023/12/05 01:20:12;;;;;;;19.23;9.38;;;-0.10;99.90;;;;;;4918732;29;20046;-84
2023/12/05 01:22:39;;;;;;;18.98;9.75;;;-0.10;99.90;;;;;;4914482;29;20045;-84
2023/12/05 01:25:07;;;;;;;18.58;9.65;;;-0.10;99.90;;;;;;4915574;29;20047;-84
2023/12/05 01:27:33;;;;;;;19.42;10.10;;;-0.10;99.90;;;;;;4922329;29;20166;-84
2023/12/05 01:30:00;;;;;;;17.90;9.50;;;-0.10;99.90;;;;;;4913725;29;20053;-84
2023/12/05 01:32:27;;;;;;;17.40;9.55;;;-0.10;99.90;;;;;;4922751;29;20037;-83
2023/12/05 01:34:53;;;;;;;18.00;9.57;;;-0.10;99.90;;;;;;4912037;29;20045;-83
2023/12/05 01:37:20;;;;;;;18.45;9.57;;;-0.10;99.90;;;;;;4929821;29;20043;-83
2023/12/05 01:39:46;;;;;;;18.60;9.35;;;-0.10;99.90;;;;;;4914564;29;20048;-83
2023/12/05 01:42:13;;;;;;;20.23;9.20;;;-0.10;99.90;;;;;;4925824;29;20033;-83
2023/12/05 01:44:40;;;;;;;17.83;9.70;;;-0.10;99.90;;;;;;4904364;29;20097;-83
2023/12/05 01:47:07;;;;;;;16.10;8.77;;;-0.10;99.90;;;;;;4915206;29;20048;-83
2023/12/05 01:49:34;;;;;;;16.85;8.73;;;-0.10;99.90;;;;;;4915662;29;20093;-83
2023/12/05 01:52:05;;;;;;;19.50;9.85;;;-0.10;99.90;;;;;;4917983;29;20076;-83
2023/12/05 01:54:32;;;;;;;16.38;8.93;;;-0.10;99.90;;;;;;4929295;29;20047;-83
2023/12/05 01:57:00;;;;;;;18.20;9.90;;;-0.10;99.90;;;;;;4920991;29;20040;-83
2023/12/05 01:59:26;;;;;;;16.80;9.02;;;-0.10;99.90;;;;;;4923847;29;20041;-83
2023/12/05 02:01:54;;;;;;;15.98;9.30;;;1.10;99.90;;;;;;4917482;29;20199;-83
2023/12/05 02:04:21;;;;;;;18.95;9.85;;;-0.10;99.90;;;;;;4929407;29;20049;-83
2023/12/05 02:06:49;;;;;;;17.92;8.70;;;-0.10;99.90;;;;;;4923286;29;20067;-83
2023/12/05 02:09:16;;;;;;;18.20;9.35;;;-0.10;99.90;;;;;;4919491;29;20041;-83
2023/12/05 02:11:43;;;;;;;18.35;9.55;;;-0.10;99.90;;;;;;4924034;29;20088;-83
2023/12/05 02:14:10;;;;;;;18.40;9.35;;;-0.10;99.90;;;;;;4912410;29;20107;-84
2023/12/05 02:16:45;;;;;;;19.27;10.18;;;-0.10;99.90;;;;;;4914245;29;20116;-84
2023/12/05 02:19:48;;;;;;;18.00;9.82;;;-0.10;99.90;;;;;;4923900;29;20044;-83
2023/12/05 02:22:40;;;;;;;18.90;10.00;;;-0.10;99.90;;;;;;4924864;29;20067;-83
2023/12/05 02:25:15;;;;;;;20.30;10.18;;;-0.10;99.90;;;;;;4929222;29;20392;-83
2023/12/05 02:27:42;;;;;;;19.88;9.63;;;0.90;99.90;;;;;;4936384;29;20067;-83
2023/12/05 02:30:10;;;;;;;17.88;9.82;;;-0.10;99.90;;;;;;4925492;29;20044;-84
2023/12/05 02:32:36;;;;;;;18.63;10.02;;;-0.10;99.90;;;;;;4932951;29;20045;-83
2023/12/05 02:35:05;;;;;;;17.23;9.57;;;-0.10;99.90;;;;;;4925276;29;20490;-83
2023/12/05 02:38:05;;;;;;;21.02;11.05;;;-0.10;99.90;;;;;;4917013;29;20432;-83
2023/12/05 02:40:46;;;;;;;19.85;10.18;;;-0.20;99.90;;;;;;4887187;29;20752;-84
2023/12/05 02:43:19;;;;;;;20.00;10.93;;;-0.10;99.90;;;;;;4917151;29;20052;-84
2023/12/05 02:45:50;;;;;;;19.95;10.55;;;-0.20;99.90;;;;;;4923917;29;20084;-83
2023/12/05 02:48:18;;;;;;;22.88;11.18;;;-0.20;99.90;;;;;;4921069;29;20048;-83
2023/12/05 02:50:45;;;;;;;20.45;10.52;;;-0.20;99.90;;;;;;4927603;29;20074;-83
2023/12/05 02:53:12;;;;;;;19.52;10.80;;;-0.20;99.90;;;;;;4934820;29;20052;-83
2023/12/05 02:55:40;;;;;;;20.55;10.60;;;0.30;99.90;;;;;;4932360;29;20047;-83
2023/12/05 02:58:06;;;;;;;20.77;10.70;;;-0.20;99.90;;;;;;4916384;29;21638;-84
2023/12/05 03:00:33;;;;;;;20.63;10.65;;;-0.20;99.90;;;;;;4910118;29;20041;-83
2023/12/05 03:02:59;;;;;;;20.85;10.65;;;-0.20;99.90;;;;;;4918159;29;20076;-83
2023/12/05 03:05:26;;;;;;;20.52;11.15;;;-0.20;99.90;;;;;;4904813;29;20064;-83
2023/12/05 03:07:53;;;;;;;23.75;11.25;;;-0.20;99.90;;;;;;4944292;29;20048;-83
2023/12/05 03:10:19;;;;;;;21.63;11.60;;;-0.20;99.90;;;;;;4916416;29;20524;-83
2023/12/05 03:12:46;;;;;;;22.88;11.52;;;-0.20;99.90;;;;;;4921894;29;20051;-83
2023/12/05 03:15:13;;;;;;;22.92;11.68;;;-0.20;99.90;;;;;;4943905;29;20071;-83
2023/12/05 03:17:39;;;;;;;21.98;11.02;;;-0.20;99.90;;;;;;4916637;29;20048;-83
2023/12/05 03:20:07;;;;;;;21.95;11.10;;;-0.20;99.90;;;;;;4915689;29;20044;-83
2023/12/05 03:22:33;;;;;;;21.95;11.45;;;-0.20;99.90;;;;;;4926314;29;20048;-83
2023/12/05 03:25:00;;;;;;;23.38;11.50;;;-0.20;99.90;;;;;;4920754;29;20497;-83
2023/12/05 03:27:27;;;;;;;22.20;11.40;;;-0.20;99.90;;;;;;4913172;29;20041;-83
2023/12/05 03:29:53;;;;;;;24.13;11.63;;;-0.20;99.90;;;;;;4931834;29;20124;-83
2023/12/05 03:32:20;;;;;;;23.55;11.60;;;0.30;99.90;;;;;;4929136;29;20072;-83
2023/12/05 03:34:47;;;;;;;21.52;11.10;;;-0.20;99.90;;;;;;4931767;29;20143;-83
2023/12/05 03:37:14;;;;;;;22.90;11.75;;;-0.20;99.90;;;;;;4927920;29;20063;-83
2023/12/05 03:39:40;;;;;;;23.40;11.77;;;-0.20;99.90;;;;;;4899705;29;20151;-83
2023/12/05 03:42:07;;;;;;;20.38;11.52;;;0.10;99.90;;;;;;4909699;29;20779;-83
2023/12/05 03:44:33;;;;;;;24.23;12.07;;;-0.20;99.90;;;;;;4931335;29;20047;-83
2023/12/05 03:47:00;;;;;;;21.60;11.60;;;-0.20;99.90;;;;;;4930675;29;20415;-83
2023/12/05 03:49:27;;;;;;;25.13;11.27;;;-0.20;99.90;;;;;;4931214;29;20503;-83
2023/12/05 03:51:53;;;;;;;22.85;11.88;;;-0.20;99.90;;;;;;4929163;29;20410;-82
2023/12/05 03:54:20;;;;;;;23.95;11.73;;;-0.20;99.90;;;;;;4928353;29;20089;-83
2023/12/05 03:56:47;;;;;;;20.65;10.90;;;0.80;99.90;;;;;;4948581;29;20796;-83
2023/12/05 03:59:14;;;;;;;24.33;11.32;;;-0.20;99.90;;;;;;4930434;29;20048;-83
2023/12/05 04:01:40;;;;;;;22.50;11.55;;;-0.20;99.90;;;;;;4917132;29;20087;-83
2023/12/05 04:04:07;;;;;;;20.63;10.85;;;-0.20;99.90;;;;;;4920389;29;20044;-83
2023/12/05 04:06:33;;;;;;;21.95;11.68;;;-0.20;99.90;;;;;;4934127;29;20065;-83
2023/12/05 04:09:00;;;;;;;21.38;10.93;;;-0.20;99.90;;;;;;4914837;29;20757;-83
2023/12/05 04:11:32;;;;;;;21.88;12.00;;;-0.20;99.90;;;;;;4915067;29;20040;-83
2023/12/05 04:13:59;;;;;;;21.63;11.25;;;-0.20;99.90;;;;;;4943160;29;20040;-83
2023/12/05 04:16:26;;;;;;;22.48;11.30;;;-0.20;99.90;;;;;;4908412;29;20446;-83
2023/12/05 04:18:53;;;;;;;21.65;12.00;;;-0.20;99.90;;;;;;4907852;29;20053;-83
2023/12/05 04:21:20;;;;;;;22.40;11.30;;;-0.20;99.90;;;;;;4925557;29;20040;-83
2023/12/05 04:23:47;;;;;;;27.25;12.05;;;-0.30;99.90;;;;;;4915066;29;20045;-83
2023/12/05 04:26:18;;;;;;;22.10;11.55;;;-0.20;99.90;;;;;;4917119;29;20486;-83
2023/12/05 04:28:45;;;;;;;20.77;10.88;;;-0.10;99.90;;;;;;4911295;29;20093;-83
2023/12/05 04:31:12;;;;;;;23.52;11.95;;;-0.10;99.90;;;;;;4927654;29;20048;-83
2023/12/05 04:33:40;;;;;;;23.40;11.85;;;-0.20;99.90;;;;;;4934066;29;20044;-83
2023/12/05 04:36:08;;;;;;;22.40;11.90;;;-0.20;99.90;;;;;;4902826;29;20040;-83
2023/12/05 04:38:38;;;;;;;23.33;11.77;;;-0.20;99.90;;;;;;4936296;29;20072;-83
2023/12/05 04:41:05;;;;;;;22.77;12.07;;;-0.10;99.90;;;;;;4913906;29;20069;-83
2023/12/05 04:43:32;;;;;;;23.75;11.60;;;-0.10;99.90;;;;;;4914476;29;20040;-83
2023/12/05 04:45:58;;;;;;;23.40;11.32;;;-0.10;99.90;;;;;;4922101;29;20076;-83
2023/12/05 04:48:25;;;;;;;22.25;11.48;;;-0.10;99.90;;;;;;4920271;29;20533;-83
2023/12/05 04:50:51;;;;;;;20.75;11.43;;;-0.10;99.90;;;;;;4932407;29;20048;-83
2023/12/05 04:53:18;;;;;;;24.65;12.48;;;-0.10;99.90;;;;;;4914880;29;20037;-82
2023/12/05 04:55:45;;;;;;;23.52;12.00;;;-0.10;99.90;;;;;;4929922;29;20037;-83
2023/12/05 04:58:11;;;;;;;21.30;11.75;;;-0.10;99.90;;;;;;4913732;29;20036;-83
2023/12/05 05:00:38;;;;;;;22.02;11.55;;;-0.20;99.90;;;;;;4910534;29;20099;-83
2023/12/05 05:03:04;;;;;;;23.90;12.00;;;-0.10;99.90;;;;;;4930399;29;20103;-83
2023/12/05 05:05:31;;;;;;;23.20;12.25;;;-0.10;99.90;;;;;;4922647;29;20060;-83
2023/12/05 05:07:58;;;;;;;23.83;11.82;;;-0.10;99.90;;;;;;4929299;29;20059;-83
2023/12/05 05:10:25;;;;;;;22.35;11.15;;;-0.20;99.90;;;;;;4920946;29;20387;-83
2023/12/05 05:12:51;;;;;;;25.92;11.93;;;-0.10;99.90;;;;;;4942761;29;20051;-83
2023/12/05 05:15:18;;;;;;;24.65;11.98;;;-0.10;99.90;;;;;;4924798;29;20052;-83
2023/12/05 05:17:44;;;;;;;27.83;12.90;;;0.50;99.90;;;;;;4903104;29;20044;-83
2023/12/05 05:20:12;;;;;;;22.58;11.75;;;-0.10;99.90;;;;;;4934873;29;20041;-83
2023/12/05 05:22:39;;;;;;;23.38;11.85;;;-0.10;99.90;;;;;;4915755;29;20049;-83
2023/12/05 05:25:06;;;;;;;27.33;13.52;;;-0.10;99.90;;;;;;4939654;29;20040;-83
2023/12/05 05:27:33;;;;;;;27.50;13.23;;;-0.10;99.90;;;;;;4931552;29;20045;-83
2023/12/05 05:29:59;;;;;;;23.60;12.05;;;-0.10;99.90;;;;;;4917252;29;20132;-83
2023/12/05 05:32:26;;;;;;;26.27;13.02;;;-0.10;99.90;;;;;;4906747;29;20440;-83
2023/12/05 05:34:53;;;;;;;24.48;12.80;;;-0.10;99.90;;;;;;4933723;29;20083;-83
2023/12/05 05:37:20;;;;;;;24.33;12.23;;;-0.10;99.90;;;;;;4919995;29;20114;-83
2023/12/05 05:39:47;;;;;;;23.98;12.00;;;-0.10;99.90;;;;;;4926922;29;20048;-83
2023/12/05 05:42:14;;;;;;;26.48;12.95;;;-0.10;99.90;;;;;;4932640;29;20131;-83
2023/12/05 05:44:40;;;;;;;25.40;12.77;;;-0.10;99.90;;;;;;4947470;29;20468;-83
2023/12/05 05:47:07;;;;;;;23.50;11.68;;;0.90;99.90;;;;;;4923375;29;20048;-83
2023/12/05 05:49:34;;;;;;;24.15;11.95;;;-0.10;99.90;;;;;;4933248;29;20060;-83
2023/12/05 05:52:01;;;;;;;26.40;13.07;;;-0.10;99.90;;;;;;4907796;29;20040;-83
2023/12/05 05:54:27;;;;;;;24.90;12.40;;;-0.10;99.90;;;;;;4917641;29;20048;-83
2023/12/05 05:56:54;;;;;;;25.15;12.90;;;-0.10;99.90;;;;;;4916392;29;20041;-83
2023/12/05 05:59:20;;;;;;;25.98;12.50;;;-0.10;99.90;;;;;;4912319;29;20069;-83
2023/12/05 06:01:48;;;;;;;26.35;13.07;;;-0.10;99.90;;;;;;4906808;29;20127;-83
2023/12/05 06:04:14;;;;;;;29.55;13.95;;;-0.10;99.90;;;;;;4928952;29;20045;-83
2023/12/05 06:06:41;;;;;;;28.60;13.32;;;-0.10;99.90;;;;;;4933276;29;20063;-83
2023/12/05 06:09:08;;;;;;;25.98;12.57;;;-0.10;99.90;;;;;;4933129;29;20084;-83
2023/12/05 06:11:34;;;;;;;26.77;12.85;;;-0.10;99.90;;;;;;4917221;29;20037;-83
2023/12/05 06:14:01;;;;;;;24.48;12.45;;;-0.10;99.90;;;;;;4936147;29;20441;-83
2023/12/05 06:16:28;;;;;;;25.63;13.10;;;-0.10;99.90;;;;;;4916152;29;20077;-83
2023/12/05 06:18:54;;;;;;;25.08;12.57;;;0.00;99.90;;;;;;4922325;29;20037;-83
2023/12/05 06:21:21;;;;;;;24.63;12.50;;;-0.10;99.90;;;;;;4934926;29;20611;-83
2023/12/05 06:23:48;;;;;;;25.08;12.77;;;-0.10;99.90;;;;;;4924359;29;20139;-83
2023/12/05 06:26:14;;;;;;;26.80;13.02;;;-0.10;99.90;;;;;;4913189;29;20115;-83
2023/12/05 06:28:41;;;;;;;26.00;12.63;;;-0.10;99.90;;;;;;4936185;29;20043;-83
2023/12/05 06:31:08;;;;;;;26.95;12.40;;;-0.10;99.90;;;;;;4922967;29;20037;-83
2023/12/05 06:33:34;;;;;;;25.02;12.25;;;-0.10;99.90;;;;;;4922964;29;20040;-82
2023/12/05 06:36:01;;;;;;;25.80;12.93;;;-0.10;99.90;;;;;;4944620;29;20481;-83
2023/12/05 06:38:28;;;;;;;24.63;12.40;;;-0.10;99.90;;;;;;4917148;29;20029;-83
2023/12/05 06:40:54;;;;;;;23.48;11.77;;;-0.10;99.90;;;;;;4929502;29;20390;-83
2023/12/05 06:43:21;;;;;;;26.30;12.43;;;-0.10;99.90;;;;;;4932618;29;20104;-83
2023/12/05 06:45:47;;;;;;;26.35;11.93;;;-0.10;99.90;;;;;;4925675;29;20383;-83
2023/12/05 06:48:15;;;;;;;23.88;11.43;;;-0.20;99.90;;;;;;4914500;29;20045;-83
2023/12/05 06:50:45;;;;;;;24.80;12.63;;;-0.20;99.90;;;;;;4920586;29;20115;-83
2023/12/05 06:53:12;;;;;;;23.50;11.88;;;-0.20;99.90;;;;;;4932040;29;20040;-83
2023/12/05 06:55:38;;;;;;;24.30;11.57;;;-0.10;99.90;;;;;;4916315;29;20398;-83
2023/12/05 06:58:05;;;;;;;23.35;11.95;;;-0.20;99.90;;;;;;4929791;29;20786;-83
2023/12/05 07:00:32;;;;;;;24.15;12.13;;;-0.20;99.90;;;;;;4914515;29;20051;-83
2023/12/05 07:02:58;;;;;;;26.70;13.43;;;-0.10;99.90;;;;;;4902233;29;20100;-83
2023/12/05 07:05:25;;;;;;;26.13;12.43;;;-0.20;99.90;;;;;;4916034;29;20059;-83
2023/12/05 07:07:52;;;;;;;25.95;12.40;;;1.10;99.90;;;;;;4910227;29;20060;-83
2023/12/05 07:10:18;;;;;;;26.10;12.40;;;-0.10;99.90;;;;;;4935695;29;20040;-83
2023/12/05 07:12:45;;;;;;;30.52;14.02;;;-0.10;99.90;;;;;;4904162;29;20032;-83
2023/12/05 07:15:12;;;;;;;31.80;14.32;;;-0.10;99.90;;;;;;4941943;29;20040;-83
2023/12/05 07:17:38;;;;;;;24.42;13.20;;;0.00;99.90;;;;;;4922594;29;20104;-83
2023/12/05 07:20:06;;;;;;;26.27;13.30;;;-0.20;99.90;;;;;;4928359;29;20045;-83
2023/12/05 07:22:33;;;;;;;25.52;12.75;;;-0.20;99.90;;;;;;4920628;29;20061;-83
2023/12/05 07:25:00;;;;;;;24.00;12.60;;;-0.10;99.90;;;;;;4927358;29;20572;-83
2023/12/05 07:27:26;;;;;;;29.30;14.27;;;-0.20;99.90;;;;;;4908880;29;20044;-82
2023/12/05 07:29:53;;;;;;;32.25;14.57;;;-0.10;99.90;;;;;;4926815;29;20044;-83
2023/12/05 07:32:20;;;;;;;29.35;14.18;;;-0.20;99.90;;;;;;4918518;29;20091;-83
2023/12/05 07:34:49;;;;;;;35.20;14.68;;;-0.10;99.90;;;;;;4931847;29;20124;-83
2023/12/05 07:37:16;;;;;;;31.13;14.85;;;-0.20;99.90;;;;;;4931777;29;20049;-83
2023/12/05 07:39:42;;;;;;;33.15;15.32;;;-0.20;99.90;;;;;;4899489;29;20502;-83
2023/12/05 07:42:09;;;;;;;29.52;14.65;;;-0.10;99.90;;;;;;4935708;29;20072;-83
2023/12/05 07:44:35;;;;;;;30.02;14.90;;;-0.10;99.90;;;;;;4930776;29;20044;-83
2023/12/05 07:47:03;;;;;;;32.83;14.98;;;-0.10;99.90;;;;;;4943890;29;20515;-83
2023/12/05 07:49:29;;;;;;;32.92;15.43;;;-0.10;99.90;;;;;;4915607;29;20041;-83
2023/12/05 07:51:56;;;;;;;31.10;14.02;;;0.90;99.90;;;;;;4915697;29;20043;-83
2023/12/05 07:54:22;;;;;;;27.35;14.13;;;-0.10;99.90;;;;;;4916041;29;20076;-83
2023/12/05 07:56:49;;;;;;;29.38;13.63;;;-0.10;99.90;;;;;;4946523;29;20036;-83
2023/12/05 07:59:16;;;;;;;28.65;13.63;;;-0.20;99.90;;;;;;4940189;29;20051;-83
2023/12/05 08:01:44;;;;;;;26.60;13.45;;;-0.10;99.90;;;;;;4915342;29;20102;-83
2023/12/05 08:04:11;;;;;;;25.08;13.55;;;-0.10;99.90;;;;;;4929020;29;20048;-83
2023/12/05 08:06:50;;;;;;;26.85;13.38;;;-0.10;99.90;;;;;;5145447;27;20941;-82
2023/12/05 08:09:17;;;;;;;30.33;14.13;;;-0.10;99.90;;;;;;5138354;28;20040;-82
2023/12/05 08:11:44;;;;;;;26.73;14.23;;;0.00;99.90;;;;;;5123465;28;20044;-82
2023/12/05 08:14:10;;;;;;;28.95;14.00;;;-0.10;99.90;;;;;;5123868;28;20577;-82
2023/12/05 08:16:39;;;;;;;26.70;12.70;;;-0.10;99.90;;;;;;5130608;28;20040;-82
2023/12/05 08:19:06;;;;;;;27.85;14.05;;;-0.10;99.90;;;;;;5152162;28;20576;-82
2023/12/05 08:21:33;;;;;;;30.23;13.80;;;-0.10;99.90;;;;;;5134356;28;20098;-81
2023/12/05 08:23:59;;;;;;;27.55;13.73;;;-0.10;99.90;;;;;;5129465;28;20122;-82
2023/12/05 08:26:26;;;;;;;26.48;13.23;;;-0.10;99.90;;;;;;5133351;28;20514;-82
2023/12/05 08:28:52;;;;;;;28.15;14.15;;;-0.10;99.90;;;;;;5107824;28;20068;-81
2023/12/05 08:31:19;;;;;;;28.55;14.05;;;0.00;99.90;;;;;;5139983;28;20058;-82
2023/12/05 08:33:46;;;;;;;29.95;14.88;;;-0.10;99.90;;;;;;5110654;28;20046;-81
2023/12/05 08:36:12;;;;;;;27.13;13.05;;;-0.10;99.90;;;;;;5137634;28;20044;-82
2023/12/05 08:38:39;;;;;;;27.30;13.10;;;0.00;99.90;;;;;;5123396;28;20489;-81
2023/12/05 08:41:06;;;;;;;27.75;13.80;;;0.00;99.90;;;;;;5111509;28;20131;-82
2023/12/05 08:43:32;;;;;;;27.70;13.88;;;0.00;99.90;;;;;;5140234;28;20086;-82
2023/12/05 08:46:00;;;;;;;29.20;14.45;;;0.00;99.90;;;;;;5114473;28;20082;-82
2023/12/05 08:48:26;;;;;;;28.60;14.27;;;0.00;99.90;;;;;;5126898;28;20162;-82
2023/12/05 08:50:54;;;;;;;28.20;13.80;;;0.00;99.90;;;;;;5130015;28;20123;-82
2023/12/05 08:53:21;;;;;;;31.27;14.30;;;0.00;99.90;;;;;;5115922;28;20405;-82
2023/12/05 08:55:48;;;;;;;25.10;14.10;;;0.00;99.90;;;;;;5121948;28;20051;-81
2023/12/05 08:58:14;;;;;;;27.17;13.75;;;0.00;99.90;;;;;;5105001;28;20513;-82
2023/12/05 09:00:41;;;;;;;27.33;14.05;;;0.00;99.90;;;;;;5102864;28;20041;-82
2023/12/05 09:03:07;;;;;;;31.15;14.32;;;0.00;99.90;;;;;;5126977;28;20088;-82
2023/12/05 09:05:35;;;;;;;27.40;13.55;;;0.10;99.90;;;;;;5104233;28;20049;-82
2023/12/05 09:08:03;;;;;;;30.08;13.65;;;1.20;99.90;;;;;;5106121;28;20407;-82
2023/12/05 09:10:29;;;;;;;27.45;14.07;;;0.00;99.90;;;;;;5118160;28;20435;-81
2023/12/05 09:12:56;;;;;;;25.05;12.40;;;0.20;99.90;;;;;;5103256;28;20041;-82
2023/12/05 09:15:23;;;;;;;29.25;13.82;;;0.00;99.90;;;;;;5105557;28;20123;-82
2023/12/05 09:17:49;;;;;;;29.08;14.93;;;1.40;99.90;;;;;;5093152;28;20040;-82
2023/12/05 09:20:18;;;;;;;31.35;14.63;;;0.10;99.90;;;;;;5092074;28;20040;-81
2023/12/05 09:22:45;;;;;;;29.02;14.00;;;0.00;99.90;;;;;;5098777;28;20123;-81
2023/12/05 09:25:11;;;;;;;30.90;13.95;;;0.10;99.90;;;;;;5088877;28;20532;-81
2023/12/05 09:27:38;;;;;;;35.28;14.30;;;1.10;99.90;;;;;;5091881;28;20421;-81
2023/12/05 09:30:05;;;;;;;25.65;13.52;;;0.10;99.90;;;;;;5092230;28;20037;-81
2023/12/05 09:32:32;;;;;;;30.25;14.50;;;0.10;99.90;;;;;;5098085;28;20040;-81
2023/12/05 09:34:58;;;;;;;24.25;13.82;;;0.10;99.90;;;;;;5085396;28;20032;-81
2023/12/05 09:37:25;;;;;;;29.50;13.88;;;0.10;99.90;;;;;;5088432;28;20036;-82
2023/12/05 09:39:52;;;;;;;30.40;14.15;;;0.10;99.90;;;;;;5088684;28;20123;-82
2023/12/05 09:42:21;;;;;;;28.35;14.55;;;0.20;99.90;;;;;;5106338;28;20207;-82
2023/12/05 09:44:49;;;;;;;28.90;13.98;;;0.20;99.90;;;;;;5085628;28;20115;-82
2023/12/05 09:47:20;;;;;;;26.27;13.38;;;0.20;99.90;;;;;;5101836;28;20036;-82
2023/12/05 09:49:47;;;;;;;30.13;14.88;;;1.10;99.90;;;;;;5106707;28;20522;-83
2023/12/05 09:52:14;;;;;;;27.55;13.52;;;0.20;99.90;;;;;;5111419;28;20508;-82
2023/12/05 09:54:44;;;;;;;27.35;13.02;;;0.20;99.90;;;;;;5086873;28;20040;-82
2023/12/05 09:57:12;;;;;;;26.58;13.05;;;0.20;99.90;;;;;;5094346;28;20040;-82
2023/12/05 09:59:39;;;;;;;26.23;13.55;;;0.20;99.90;;;;;;5091715;28;20048;-82
2023/12/05 10:02:07;;;;;;;33.72;13.73;;;0.20;99.90;;;;;;5105624;28;20059;-82
2023/12/05 10:04:44;;;;;;;29.40;14.20;;;0.20;99.90;;;;;;5088444;28;20045;-82
2023/12/05 10:07:12;;;;;;;27.55;13.82;;;0.40;99.90;;;;;;5083970;28;20085;-81
2023/12/05 10:09:43;;;;;;;26.08;13.40;;;0.20;99.90;;;;;;5104114;28;20037;-82
2023/12/05 10:12:11;;;;;;;26.17;13.93;;;0.20;99.90;;;;;;5103415;28;20118;-82
2023/12/05 10:14:38;;;;;;;32.17;14.77;;;0.20;99.90;;;;;;5106619;28;20039;-82
2023/12/05 10:17:06;;;;;;;28.58;14.35;;;0.20;99.90;;;;;;5090925;28;20119;-81
2023/12/05 10:19:33;;;;;;;26.38;13.80;;;0.20;99.90;;;;;;5094136;28;20032;-82
2023/12/05 10:22:02;;;;;;;26.65;13.43;;;0.20;99.90;;;;;;5095826;28;20036;-83
2023/12/05 10:24:38;;;;;;;26.23;13.30;;;0.20;99.90;;;;;;5104882;28;20036;-82
2023/12/05 10:27:07;;;;;;;26.63;14.18;;;0.20;99.90;;;;;;5104308;28;20049;-81
2023/12/05 10:29:41;;;;;;;25.08;13.40;;;0.20;99.90;;;;;;5089076;28;20562;-81
2023/12/05 10:32:10;;;;;;;29.00;14.07;;;0.20;99.90;;;;;;5107215;28;20435;-82
2023/12/05 10:34:54;;;;;;;28.15;13.73;;;0.20;99.90;;;;;;5090687;28;20451;-83
2023/12/05 10:37:21;;;;;;;24.92;13.80;;;0.70;99.90;;;;;;5090209;28;20067;-81
2023/12/05 10:39:52;;;;;;;27.98;13.75;;;0.30;99.90;;;;;;5087920;28;20120;-82
2023/12/05 10:42:20;;;;;;;26.98;13.43;;;0.30;99.90;;;;;;5085986;28;20079;-81
2023/12/05 10:44:47;;;;;;;24.20;13.02;;;0.30;99.90;;;;;;5090275;28;20086;-82
2023/12/05 10:47:14;;;;;;;26.98;13.90;;;0.30;99.90;;;;;;5077380;28;20045;-82
2023/12/05 10:49:42;;;;;;;27.52;13.75;;;0.30;99.90;;;;;;5090559;28;20525;-81
2023/12/05 10:52:11;;;;;;;30.45;14.77;;;0.30;99.90;;;;;;5084589;28;20036;-81
2023/12/05 10:54:42;;;;;;;30.95;15.43;;;0.30;99.90;;;;;;5090389;28;20040;-82
2023/12/05 10:57:11;;;;;;;27.92;13.90;;;0.30;99.90;;;;;;5106882;28;20041;-82
2023/12/05 10:59:40;;;;;;;27.80;14.02;;;0.40;99.90;;;;;;5107381;28;20445;-82
2023/12/05 11:02:14;;;;;;;30.00;14.27;;;0.40;99.90;;;;;;5108499;28;20047;-82
2023/12/05 11:04:41;;;;;;;27.73;14.18;;;0.40;99.90;;;;;;5091732;28;20032;-81
2023/12/05 11:07:09;;;;;;;28.90;14.10;;;0.30;99.90;;;;;;5102718;28;20080;-82
2023/12/05 11:09:35;;;;;;;30.85;14.52;;;0.30;99.90;;;;;;5105916;28;20071;-81
2023/12/05 11:12:07;;;;;;;29.88;14.85;;;0.30;99.90;;;;;;5093917;28;20052;-82
2023/12/05 11:14:39;;;;;;;28.38;13.57;;;0.30;99.90;;;;;;5101318;28;20493;-82
2023/12/05 11:17:12;;;;;;;28.90;14.50;;;0.30;99.90;;;;;;5106657;28;20063;-82
2023/12/05 11:19:52;;;;;;;28.42;14.05;;;0.30;99.90;;;;;;5089887;28;20049;-82
2023/12/05 11:22:40;;;;;;;29.90;14.52;;;0.30;99.90;;;;;;5089613;28;20045;-82
2023/12/05 11:25:36;;;;;;;30.75;13.82;;;0.30;99.90;;;;;;5081451;28;20044;-82
2023/12/05 11:28:34;;;;;;;31.67;14.53;;;0.30;99.90;;;;;;5069545;28;20033;-81
2023/12/05 11:31:26;;;;;;;28.40;14.13;;;0.30;99.90;;;;;;5086436;28;20345;-82
2023/12/05 11:34:11;;;;;;;28.23;14.57;;;1.10;99.90;;;;;;5074501;28;20033;-82
2023/12/05 11:37:04;;;;;;;25.25;13.20;;;0.30;99.90;;;;;;5106290;28;20131;-82
2023/12/05 11:39:32;;;;;;;30.05;14.70;;;0.30;99.90;;;;;;5086031;28;20400;-82
2023/12/05 11:42:14;;;;;;;29.85;14.05;;;0.30;99.90;;;;;;5087997;28;20492;-82
2023/12/05 11:44:42;;;;;;;29.38;14.88;;;0.40;99.90;;;;;;5073283;28;20036;-82
2023/12/05 11:47:24;;;;;;;29.48;14.63;;;0.60;99.90;;;;;;5102797;28;20037;-82
2023/12/05 11:50:02;;;;;;;30.25;14.98;;;0.40;99.90;;;;;;5088538;28;20565;-82
2023/12/05 11:52:37;;;;;;;28.83;14.20;;;0.40;99.90;;;;;;5095462;28;20041;-82
2023/12/05 11:55:04;;;;;;;30.58;14.85;;;0.40;99.90;;;;;;5099335;28;20044;-82
2023/12/05 11:57:33;;;;;;;33.95;14.95;;;0.40;99.90;;;;;;5080743;28;20452;-83
2023/12/05 11:59:59;;;;;;;30.75;14.30;;;0.40;99.90;;;;;;5068582;28;20475;-82
2023/12/05 12:02:32;;;;;;;30.00;15.82;;;0.40;99.90;;;;;;5086425;28;20132;-81
2023/12/05 12:05:05;;;;;;;34.13;15.27;;;0.30;99.90;;;;;;5094133;28;20043;-82
2023/12/05 12:07:32;;;;;;;28.98;14.73;;;0.30;99.90;;;;;;5089292;28;20040;-82
2023/12/05 12:09:59;;;;;;;31.05;15.30;;;0.50;99.90;;;;;;5083390;28;20033;-82
2023/12/05 12:12:26;;;;;;;31.00;16.02;;;0.30;99.90;;;;;;5082502;28;20090;-83
2023/12/05 12:14:53;;;;;;;30.83;14.48;;;0.30;99.90;;;;;;5084768;28;20687;-82
2023/12/05 12:17:20;;;;;;;29.30;14.32;;;1.30;99.90;;;;;;5089327;28;20093;-82
2023/12/05 12:19:48;;;;;;;29.63;15.57;;;0.30;99.90;;;;;;5087808;28;20552;-82
2023/12/05 12:22:14;;;;;;;32.40;15.40;;;0.30;99.90;;;;;;5082966;28;20493;-82
2023/12/05 12:24:41;;;;;;;33.97;16.05;;;0.30;99.90;;;;;;5086545;28;20066;-82
2023/12/05 12:27:09;;;;;;;31.65;15.27;;;0.20;99.90;;;;;;5103217;28;20044;-82
2023/12/05 12:29:36;;;;;;;28.58;13.90;;;0.30;99.90;;;;;;5088819;28;20062;-82
2023/12/05 12:32:06;;;;;;;31.90;15.63;;;0.20;99.90;;;;;;5085363;28;20434;-82
2023/12/05 12:34:33;;;;;;;32.40;15.02;;;0.20;99.90;;;;;;5074672;28;20045;-82
2023/12/05 12:36:59;;;;;;;29.70;14.93;;;0.20;99.90;;;;;;5088761;28;20040;-82
2023/12/05 12:39:27;;;;;;;29.52;14.77;;;0.20;99.90;;;;;;5085645;28;20040;-83